sensor_id;sensor_type;location;lat;lon;timestamp;pressure;altitude;pressure_sealevel;temperature;humidity
76024;BME280;64719;52.124;6.226;2023-03-19T00:02:17;101173.34;;;10.60;88.88
76024;BME280;64719;52.124;6.226;2023-03-19T00:04:44;101162.94;;;10.57;88.67
76024;BME280;64719;52.124;6.226;2023-03-19T00:07:10;101174.38;;;10.66;88.74
76024;BME280;64719;52.124;6.226;2023-03-19T00:09:37;101171.66;;;10.66;88.55
76024;BME280;64719;52.124;6.226;2023-03-19T00:12:04;101180.16;;;10.69;88.16
76024;BME280;64719;52.124;6.226;2023-03-19T00:14:31;101179.66;;;10.79;87.83
76024;BME280;64719;52.124;6.226;2023-03-19T00:16:57;101181.47;;;10.85;87.52
76024;BME280;64719;52.124;6.226;2023-03-19T00:19:25;101190.91;;;10.82;87.66
76024;BME280;64719;52.124;6.226;2023-03-19T00:21:52;101182.97;;;10.81;87.61
76024;BME280;64719;52.124;6.226;2023-03-19T00:24:19;101181.97;;;10.75;88.41
76024;BME280;64719;52.124;6.226;2023-03-19T00:26:46;101191.63;;;10.71;89.13
76024;BME280;64719;52.124;6.226;2023-03-19T00:29:13;101182.28;;;10.67;89.76
76024;BME280;64719;52.124;6.226;2023-03-19T00:31:40;101187.09;;;10.65;90.56
76024;BME280;64719;52.124;6.226;2023-03-19T00:34:07;101199.47;;;10.61;91.61
76024;BME280;64719;52.124;6.226;2023-03-19T00:36:35;101201.81;;;10.51;92.44
76024;BME280;64719;52.124;6.226;2023-03-19T00:39:02;101190.00;;;10.46;93.00
76024;BME280;64719;52.124;6.226;2023-03-19T00:41:28;101200.88;;;10.39;94.09
76024;BME280;64719;52.124;6.226;2023-03-19T00:43:56;101190.56;;;10.30;95.02
76024;BME280;64719;52.124;6.226;2023-03-19T00:46:23;101195.63;;;10.20;95.69
76024;BME280;64719;52.124;6.226;2023-03-19T00:48:51;101198.38;;;10.13;96.78
76024;BME280;64719;52.124;6.226;2023-03-19T00:51:20;101201.97;;;10.07;97.13
76024;BME280;64719;52.124;6.226;2023-03-19T00:53:48;101196.56;;;10.07;97.59
76024;BME280;64719;52.124;6.226;2023-03-19T00:56:15;101186.13;;;10.04;98.25
76024;BME280;64719;52.124;6.226;2023-03-19T00:58:43;101193.88;;;10.01;98.65
76024;BME280;64719;52.124;6.226;2023-03-19T01:01:12;101189.13;;;9.96;99.23
76024;BME280;64719;52.124;6.226;2023-03-19T01:03:40;101198.72;;;9.92;98.71
76024;BME280;64719;52.124;6.226;2023-03-19T01:06:06;101191.00;;;9.89;99.56
76024;BME280;64719;52.124;6.226;2023-03-19T01:08:33;101200.03;;;9.83;98.96
76024;BME280;64719;52.124;6.226;2023-03-19T01:11:06;101193.59;;;9.78;99.70
76024;BME280;64719;52.124;6.226;2023-03-19T01:13:33;101189.72;;;9.67;99.96
76024;BME280;64719;52.124;6.226;2023-03-19T01:15:59;101192.88;;;9.58;99.50
76024;BME280;64719;52.124;6.226;2023-03-19T01:18:26;101193.72;;;9.58;99.90
76024;BME280;64719;52.124;6.226;2023-03-19T01:20:53;101202.91;;;9.57;100.00
76024;BME280;64719;52.124;6.226;2023-03-19T01:23:19;101196.03;;;9.55;100.00
76024;BME280;64719;52.124;6.226;2023-03-19T01:25:46;101195.00;;;9.56;100.00
76024;BME280;64719;52.124;6.226;2023-03-19T01:28:13;101183.97;;;9.51;100.00
76024;BME280;64719;52.124;6.226;2023-03-19T01:30:40;101179.19;;;9.46;100.00
76024;BME280;64719;52.124;6.226;2023-03-19T01:33:06;101186.47;;;9.46;100.00
76024;BME280;64719;52.124;6.226;2023-03-19T01:35:33;101187.75;;;9.43;100.00
76024;BME280;64719;52.124;6.226;2023-03-19T01:38:00;101185.88;;;9.44;100.00
76024;BME280;64719;52.124;6.226;2023-03-19T01:40:26;101184.81;;;9.45;100.00
76024;BME280;64719;52.124;6.226;2023-03-19T01:42:55;101176.06;;;9.49;100.00
76024;BME280;64719;52.124;6.226;2023-03-19T01:45:31;101168.38;;;9.40;100.00
76024;BME280;64719;52.124;6.226;2023-03-19T01:47:58;101176.16;;;9.23;100.00
76024;BME280;64719;52.124;6.226;2023-03-19T01:50:28;101175.00;;;9.06;100.00
76024;BME280;64719;52.124;6.226;2023-03-19T01:52:58;101178.97;;;8.97;100.00
76024;BME280;64719;52.124;6.226;2023-03-19T01:55:25;101172.53;;;8.85;100.00
76024;BME280;64719;52.124;6.226;2023-03-19T01:57:52;101178.22;;;8.77;100.00
76024;BME280;64719;52.124;6.226;2023-03-19T02:00:19;101173.44;;;8.59;100.00
76024;BME280;64719;52.124;6.226;2023-03-19T02:02:50;101178.47;;;8.43;100.00
76024;BME280;64719;52.124;6.226;2023-03-19T02:05:18;101185.13;;;8.27;100.00
76024;BME280;64719;52.124;6.226;2023-03-19T02:07:51;101180.97;;;8.25;100.00
76024;BME280;64719;52.124;6.226;2023-03-19T02:10:18;101167.88;;;8.35;100.00
76024;BME280;64719;52.124;6.226;2023-03-19T02:12:46;101166.63;;;8.37;100.00
76024;BME280;64719;52.124;6.226;2023-03-19T02:15:13;101165.53;;;8.58;100.00
76024;BME280;64719;52.124;6.226;2023-03-19T02:17:40;101165.13;;;8.61;100.00
76024;BME280;64719;52.124;6.226;2023-03-19T02:20:13;101168.44;;;8.69;100.00
76024;BME280;64719;52.124;6.226;2023-03-19T02:22:51;101175.94;;;8.67;100.00
76024;BME280;64719;52.124;6.226;2023-03-19T02:25:27;101175.50;;;8.64;100.00
76024;BME280;64719;52.124;6.226;2023-03-19T02:27:57;101186.75;;;8.67;100.00
76024;BME280;64719;52.124;6.226;2023-03-19T02:30:27;101193.22;;;8.66;100.00
76024;BME280;64719;52.124;6.226;2023-03-19T02:32:54;101175.94;;;8.67;100.00
76024;BME280;64719;52.124;6.226;2023-03-19T02:35:20;101185.28;;;8.71;100.00
76024;BME280;64719;52.124;6.226;2023-03-19T02:37:47;101187.97;;;8.71;100.00
76024;BME280;64719;52.124;6.226;2023-03-19T02:40:16;101189.88;;;8.71;100.00
76024;BME280;64719;52.124;6.226;2023-03-19T02:42:44;101189.03;;;8.70;100.00
76024;BME280;64719;52.124;6.226;2023-03-19T02:45:12;101190.31;;;8.68;100.00
76024;BME280;64719;52.124;6.226;2023-03-19T02:47:39;101186.97;;;8.72;100.00
76024;BME280;64719;52.124;6.226;2023-03-19T02:50:07;101199.66;;;8.72;100.00
76024;BME280;64719;52.124;6.226;2023-03-19T02:52:34;101192.75;;;8.76;100.00
76024;BME280;64719;52.124;6.226;2023-03-19T02:55:01;101199.81;;;8.83;100.00
76024;BME280;64719;52.124;6.226;2023-03-19T02:57:27;101196.91;;;8.85;100.00
76024;BME280;64719;52.124;6.226;2023-03-19T02:59:54;101194.41;;;8.90;100.00
76024;BME280;64719;52.124;6.226;2023-03-19T03:02:22;101198.34;;;8.94;100.00
76024;BME280;64719;52.124;6.226;2023-03-19T03:04:48;101199.38;;;8.99;100.00
76024;BME280;64719;52.124;6.226;2023-03-19T03:07:14;101190.41;;;9.05;100.00
76024;BME280;64719;52.124;6.226;2023-03-19T03:09:41;101189.13;;;9.08;100.00
76024;BME280;64719;52.124;6.226;2023-03-19T03:12:08;101194.13;;;9.11;100.00
76024;BME280;64719;52.124;6.226;2023-03-19T03:14:35;101192.69;;;9.15;100.00
76024;BME280;64719;52.124;6.226;2023-03-19T03:17:02;101196.41;;;9.20;100.00
76024;BME280;64719;52.124;6.226;2023-03-19T03:19:30;101194.31;;;9.22;100.00
76024;BME280;64719;52.124;6.226;2023-03-19T03:21:56;101205.31;;;9.27;100.00
76024;BME280;64719;52.124;6.226;2023-03-19T03:24:25;101193.88;;;9.25;100.00
76024;BME280;64719;52.124;6.226;2023-03-19T03:26:51;101200.88;;;9.40;100.00
76024;BME280;64719;52.124;6.226;2023-03-19T03:29:18;101210.47;;;9.42;100.00
76024;BME280;64719;52.124;6.226;2023-03-19T03:31:44;101212.53;;;9.47;100.00
76024;BME280;64719;52.124;6.226;2023-03-19T03:34:11;101217.75;;;9.48;100.00
76024;BME280;64719;52.124;6.226;2023-03-19T03:36:39;101206.28;;;9.46;100.00
76024;BME280;64719;52.124;6.226;2023-03-19T03:39:05;101212.53;;;9.47;100.00
76024;BME280;64719;52.124;6.226;2023-03-19T03:41:32;101214.16;;;9.54;100.00
76024;BME280;64719;52.124;6.226;2023-03-19T03:43:58;101220.63;;;9.53;100.00
76024;BME280;64719;52.124;6.226;2023-03-19T03:46:25;101213.31;;;9.60;100.00
76024;BME280;64719;52.124;6.226;2023-03-19T03:48:52;101222.69;;;9.58;100.00
76024;BME280;64719;52.124;6.226;2023-03-19T03:51:18;101219.53;;;9.61;100.00
76024;BME280;64719;52.124;6.226;2023-03-19T03:53:47;101223.94;;;9.62;100.00
76024;BME280;64719;52.124;6.226;2023-03-19T03:56:14;101226.00;;;9.60;100.00
76024;BME280;64719;52.124;6.226;2023-03-19T03:58:40;101227.88;;;9.59;100.00
76024;BME280;64719;52.124;6.226;2023-03-19T04:01:08;101232.50;;;9.59;100.00
76024;BME280;64719;52.124;6.226;2023-03-19T04:03:37;101220.81;;;9.58;100.00
76024;BME280;64719;52.124;6.226;2023-03-19T04:06:05;101221.88;;;9.57;100.00
76024;BME280;64719;52.124;6.226;2023-03-19T04:08:32;101221.47;;;9.54;100.00
76024;BME280;64719;52.124;6.226;2023-03-19T04:11:00;101221.47;;;9.54;100.00
76024;BME280;64719;52.124;6.226;2023-03-19T04:13:26;101216.28;;;9.46;100.00
76024;BME280;64719;52.124;6.226;2023-03-19T04:15:53;101225.47;;;9.45;100.00
76024;BME280;64719;52.124;6.226;2023-03-19T04:18:20;101232.31;;;9.47;100.00
76024;BME280;64719;52.124;6.226;2023-03-19T04:20:46;101230.03;;;9.44;100.00
76024;BME280;64719;52.124;6.226;2023-03-19T04:23:13;101229.66;;;9.41;100.00
76024;BME280;64719;52.124;6.226;2023-03-19T04:25:39;101231.53;;;9.40;100.00
76024;BME280;64719;52.124;6.226;2023-03-19T04:28:07;101229.88;;;9.39;100.00
76024;BME280;64719;52.124;6.226;2023-03-19T04:30:34;101231.09;;;9.37;100.00
76024;BME280;64719;52.124;6.226;2023-03-19T04:33:01;101232.16;;;9.36;100.00
76024;BME280;64719;52.124;6.226;2023-03-19T04:35:27;101220.91;;;9.32;100.00
76024;BME280;64719;52.124;6.226;2023-03-19T04:37:54;101226.53;;;9.30;100.00
76024;BME280;64719;52.124;6.226;2023-03-19T04:40:20;101226.34;;;9.32;100.00
76024;BME280;64719;52.124;6.226;2023-03-19T04:42:47;101224.06;;;9.29;100.00
76024;BME280;64719;52.124;6.226;2023-03-19T04:45:15;101233.44;;;9.26;100.00
76024;BME280;64719;52.124;6.226;2023-03-19T04:47:41;101223.47;;;9.27;100.00
76024;BME280;64719;52.124;6.226;2023-03-19T04:50:09;101230.75;;;9.26;100.00
76024;BME280;64719;52.124;6.226;2023-03-19T04:52:37;101220.97;;;9.25;100.00
76024;BME280;64719;52.124;6.226;2023-03-19T04:55:04;101230.75;;;9.20;100.00
76024;BME280;64719;52.124;6.226;2023-03-19T04:57:31;101242.00;;;9.23;100.00
76024;BME280;64719;52.124;6.226;2023-03-19T04:59:58;101237.81;;;9.27;100.00
76024;BME280;64719;52.124;6.226;2023-03-19T05:02:26;101237.81;;;9.27;100.00
76024;BME280;64719;52.124;6.226;2023-03-19T05:04:53;101246.34;;;9.24;100.00
76024;BME280;64719;52.124;6.226;2023-03-19T05:07:19;101248.47;;;9.22;100.00
76024;BME280;64719;52.124;6.226;2023-03-19T05:09:46;101251.19;;;9.16;100.00
76024;BME280;64719;52.124;6.226;2023-03-19T05:12:13;101261.16;;;9.15;100.00
76024;BME280;64719;52.124;6.226;2023-03-19T05:14:39;101257.19;;;9.24;100.00
76024;BME280;64719;52.124;6.226;2023-03-19T05:17:06;101259.03;;;9.30;100.00
76024;BME280;64719;52.124;6.226;2023-03-19T05:19:36;101262.38;;;9.26;100.00
76024;BME280;64719;52.124;6.226;2023-03-19T05:22:03;101257.81;;;9.20;100.00
76024;BME280;64719;52.124;6.226;2023-03-19T05:24:30;101261.81;;;9.17;100.00
76024;BME280;64719;52.124;6.226;2023-03-19T05:26:56;101265.56;;;9.16;100.00
76024;BME280;64719;52.124;6.226;2023-03-19T05:29:23;101262.44;;;9.13;100.00
76024;BME280;64719;52.124;6.226;2023-03-19T05:31:50;101264.72;;;9.09;100.00
76024;BME280;64719;52.124;6.226;2023-03-19T05:34:17;101264.34;;;9.06;100.00
76024;BME280;64719;52.124;6.226;2023-03-19T05:36:45;101274.13;;;9.00;100.00
76024;BME280;64719;52.124;6.226;2023-03-19T05:39:11;101272.66;;;9.04;100.00
76024;BME280;64719;52.124;6.226;2023-03-19T05:41:38;101268.28;;;9.10;100.00
76024;BME280;64719;52.124;6.226;2023-03-19T05:44:04;101273.03;;;9.21;100.00
76024;BME280;64719;52.124;6.226;2023-03-19T05:46:31;101272.63;;;9.17;100.00
76024;BME280;64719;52.124;6.226;2023-03-19T05:48:58;101269.28;;;9.22;100.00
76024;BME280;64719;52.124;6.226;2023-03-19T05:51:24;101277.63;;;9.20;100.00
76024;BME280;64719;52.124;6.226;2023-03-19T05:53:52;101277.84;;;9.12;100.00
76024;BME280;64719;52.124;6.226;2023-03-19T05:56:19;101275.13;;;9.12;100.00
76024;BME280;64719;52.124;6.226;2023-03-19T05:58:45;101278.47;;;9.08;100.00
76024;BME280;64719;52.124;6.226;2023-03-19T06:01:12;101279.94;;;8.97;100.00
76024;BME280;64719;52.124;6.226;2023-03-19T06:03:39;101287.66;;;9.00;100.00
76024;BME280;64719;52.124;6.226;2023-03-19T06:06:06;101283.88;;;9.08;100.00
76024;BME280;64719;52.124;6.226;2023-03-19T06:08:32;101292.44;;;9.05;100.00
76024;BME280;64719;52.124;6.226;2023-03-19T06:11:00;101290.13;;;8.95;100.00
76024;BME280;64719;52.124;6.226;2023-03-19T06:13:27;101290.97;;;9.02;100.00
76024;BME280;64719;52.124;6.226;2023-03-19T06:15:53;101296.41;;;9.09;100.00
76024;BME280;64719;52.124;6.226;2023-03-19T06:18:20;101303.25;;;9.18;100.00
76024;BME280;64719;52.124;6.226;2023-03-19T06:20:46;101295.09;;;9.38;100.00
76024;BME280;64719;52.124;6.226;2023-03-19T06:23:13;101304.16;;;9.56;100.00
76024;BME280;64719;52.124;6.226;2023-03-19T06:25:40;101303.13;;;9.57;100.00
76024;BME280;64719;52.124;6.226;2023-03-19T06:28:08;101307.31;;;9.53;100.00
76024;BME280;64719;52.124;6.226;2023-03-19T06:30:35;101314.34;;;9.74;100.00
76024;BME280;64719;52.124;6.226;2023-03-19T06:33:01;101308.13;;;10.04;100.00
76024;BME280;64719;52.124;6.226;2023-03-19T06:35:28;101322.63;;;10.29;100.00
76024;BME280;64719;52.124;6.226;2023-03-19T06:37:55;101313.88;;;10.21;100.00
76024;BME280;64719;52.124;6.226;2023-03-19T06:40:21;101320.56;;;10.25;100.00
76024;BME280;64719;52.124;6.226;2023-03-19T06:42:48;101318.91;;;10.55;99.30
76024;BME280;64719;52.124;6.226;2023-03-19T06:45:16;101327.81;;;10.62;99.26
76024;BME280;64719;52.124;6.226;2023-03-19T06:47:43;101329.06;;;10.66;98.69
76024;BME280;64719;52.124;6.226;2023-03-19T06:50:10;101333.94;;;10.82;98.40
76024;BME280;64719;52.124;6.226;2023-03-19T06:52:37;101337.63;;;10.87;97.72
76024;BME280;64719;52.124;6.226;2023-03-19T06:55:04;101341.53;;;10.73;97.62
76024;BME280;64719;52.124;6.226;2023-03-19T06:57:32;101345.78;;;10.63;97.41
76024;BME280;64719;52.124;6.226;2023-03-19T06:59:58;101348.44;;;10.69;97.65
76024;BME280;64719;52.124;6.226;2023-03-19T07:02:26;101344.38;;;10.78;97.12
76024;BME280;64719;52.124;6.226;2023-03-19T07:04:53;101341.50;;;10.98;96.85
76024;BME280;64719;52.124;6.226;2023-03-19T07:07:19;101351.38;;;10.92;96.29
76024;BME280;64719;52.124;6.226;2023-03-19T07:09:46;101354.47;;;10.71;96.47
76024;BME280;64719;52.124;6.226;2023-03-19T07:12:13;101357.81;;;10.73;96.76
76024;BME280;64719;52.124;6.226;2023-03-19T07:14:39;101353.34;;;10.85;96.81
76024;BME280;64719;52.124;6.226;2023-03-19T07:17:06;101350.78;;;11.15;96.36
76024;BME280;64719;52.124;6.226;2023-03-19T07:19:34;101362.13;;;11.48;94.28
76024;BME280;64719;52.124;6.226;2023-03-19T07:22:00;101363.53;;;11.33;94.56
76024;BME280;64719;52.124;6.226;2023-03-19T07:24:27;101360.00;;;11.32;94.90
76024;BME280;64719;52.124;6.226;2023-03-19T07:26:54;101362.28;;;11.35;94.79
76024;BME280;64719;52.124;6.226;2023-03-19T07:29:21;101374.75;;;11.67;94.21
76024;BME280;64719;52.124;6.226;2023-03-19T07:31:47;101370.28;;;11.91;92.72
76024;BME280;64719;52.124;6.226;2023-03-19T07:34:14;101376.06;;;11.58;92.85
76024;BME280;64719;52.124;6.226;2023-03-19T07:36:42;101381.38;;;11.47;93.31
76024;BME280;64719;52.124;6.226;2023-03-19T07:39:08;101386.28;;;11.63;93.73
76024;BME280;64719;52.124;6.226;2023-03-19T07:41:35;101387.22;;;11.50;94.14
76024;BME280;64719;52.124;6.226;2023-03-19T07:44:01;101386.53;;;11.79;93.47
76024;BME280;64719;52.124;6.226;2023-03-19T07:46:28;101386.81;;;11.89;92.82
76024;BME280;64719;52.124;6.226;2023-03-19T07:48:54;101385.00;;;11.65;92.82
76024;BME280;64719;52.124;6.226;2023-03-19T07:51:21;101384.56;;;11.44;93.60
76024;BME280;64719;52.124;6.226;2023-03-19T07:53:49;101383.25;;;11.71;93.81
76024;BME280;64719;52.124;6.226;2023-03-19T07:56:15;101387.09;;;11.81;93.11
76024;BME280;64719;52.124;6.226;2023-03-19T07:58:42;101388.84;;;12.12;92.14
76024;BME280;64719;52.124;6.226;2023-03-19T08:01:08;101391.56;;;12.12;91.27
76024;BME280;64719;52.124;6.226;2023-03-19T08:03:35;101397.22;;;12.28;90.16
76024;BME280;64719;52.124;6.226;2023-03-19T08:06:03;101394.75;;;12.09;89.76
76024;BME280;64719;52.124;6.226;2023-03-19T08:08:29;101399.13;;;11.92;89.73
76024;BME280;64719;52.124;6.226;2023-03-19T08:11:00;101400.81;;;11.75;90.37
76024;BME280;64719;52.124;6.226;2023-03-19T08:13:27;101406.00;;;11.94;90.82
76024;BME280;64719;52.124;6.226;2023-03-19T08:15:54;101404.78;;;11.90;90.51
76024;BME280;64719;52.124;6.226;2023-03-19T08:18:21;101410.09;;;11.85;90.60
76024;BME280;64719;52.124;6.226;2023-03-19T08:20:48;101406.00;;;11.94;90.30
76024;BME280;64719;52.124;6.226;2023-03-19T08:23:14;101417.19;;;12.04;89.78
76024;BME280;64719;52.124;6.226;2023-03-19T08:25:41;101411.06;;;12.09;89.67
76024;BME280;64719;52.124;6.226;2023-03-19T08:28:09;101413.94;;;12.73;87.96
76024;BME280;64719;52.124;6.226;2023-03-19T08:30:36;101408.31;;;13.27;86.25
76024;BME280;64719;52.124;6.226;2023-03-19T08:33:03;101413.28;;;13.19;86.43
76024;BME280;64719;52.124;6.226;2023-03-19T08:35:30;101417.56;;;12.85;85.21
76024;BME280;64719;52.124;6.226;2023-03-19T08:37:56;101425.28;;;12.58;85.52
76024;BME280;64719;52.124;6.226;2023-03-19T08:40:23;101429.31;;;13.61;83.91
76024;BME280;64719;52.124;6.226;2023-03-19T08:42:49;101433.31;;;14.56;80.92
76024;BME280;64719;52.124;6.226;2023-03-19T08:45:18;101425.72;;;14.58;78.51
76024;BME280;64719;52.124;6.226;2023-03-19T08:47:45;101425.88;;;13.66;80.71
76024;BME280;64719;52.124;6.226;2023-03-19T08:50:13;101423.59;;;13.17;83.18
76024;BME280;64719;52.124;6.226;2023-03-19T08:52:39;101436.97;;;12.88;84.30
76024;BME280;64719;52.124;6.226;2023-03-19T08:55:07;101443.50;;;12.87;84.21
76024;BME280;64719;52.124;6.226;2023-03-19T08:57:34;101446.06;;;12.71;83.28
76024;BME280;64719;52.124;6.226;2023-03-19T09:00:01;101448.34;;;12.56;84.15
76024;BME280;64719;52.124;6.226;2023-03-19T09:02:30;101443.69;;;12.45;84.12
76024;BME280;64719;52.124;6.226;2023-03-19T09:04:56;101454.59;;;12.56;83.80
76024;BME280;64719;52.124;6.226;2023-03-19T09:07:23;101453.78;;;12.85;83.61
76024;BME280;64719;52.124;6.226;2023-03-19T09:09:49;101459.00;;;12.57;83.03
76024;BME280;64719;52.124;6.226;2023-03-19T09:12:16;101457.66;;;12.48;83.97
76024;BME280;64719;52.124;6.226;2023-03-19T09:14:43;101467.94;;;12.46;83.57
76024;BME280;64719;52.124;6.226;2023-03-19T09:17:10;101473.81;;;12.61;82.69
76024;BME280;64719;52.124;6.226;2023-03-19T09:19:41;101474.19;;;12.94;82.46
76024;BME280;64719;52.124;6.226;2023-03-19T09:22:07;101479.13;;;13.04;82.43
76024;BME280;64719;52.124;6.226;2023-03-19T09:24:34;101471.34;;;13.31;79.91
76024;BME280;64719;52.124;6.226;2023-03-19T09:27:01;101476.03;;;13.76;78.63
76024;BME280;64719;52.124;6.226;2023-03-19T09:29:27;101481.59;;;14.04;77.42
76024;BME280;64719;52.124;6.226;2023-03-19T09:31:54;101488.81;;;14.45;76.15
76024;BME280;64719;52.124;6.226;2023-03-19T09:34:20;101484.78;;;14.76;74.42
76024;BME280;64719;52.124;6.226;2023-03-19T09:36:48;101484.25;;;16.01;73.05
76024;BME280;64719;52.124;6.226;2023-03-19T09:39:15;101480.56;;;17.25;66.34
76024;BME280;64719;52.124;6.226;2023-03-19T09:41:50;101488.97;;;16.87;67.08
76024;BME280;64719;52.124;6.226;2023-03-19T09:44:27;101493.59;;;17.08;64.98
76024;BME280;64719;52.124;6.226;2023-03-19T09:46:57;101485.09;;;17.67;64.45
76024;BME280;64719;52.124;6.226;2023-03-19T09:49:29;101489.78;;;16.87;63.06
76024;BME280;64719;52.124;6.226;2023-03-19T09:52:07;101484.13;;;18.25;61.79
76024;BME280;64719;52.124;6.226;2023-03-19T09:54:43;101493.22;;;20.53;53.94
76024;BME280;64719;52.124;6.226;2023-03-19T09:57:11;101491.03;;;17.86;60.34
76024;BME280;64719;52.124;6.226;2023-03-19T09:59:39;101494.63;;;20.40;55.74
76024;BME280;64719;52.124;6.226;2023-03-19T10:02:33;101486.00;;;22.16;50.03
76024;BME280;64719;52.124;6.226;2023-03-19T10:05:10;101492.28;;;23.99;46.17
76024;BME280;64719;52.124;6.226;2023-03-19T10:10:44;101489.31;;;22.18;48.65
76024;BME280;64719;52.124;6.226;2023-03-19T10:13:25;101492.34;;;25.65;40.67
76024;BME280;64719;52.124;6.226;2023-03-19T10:15:55;101484.94;;;27.85;36.05
76024;BME280;64719;52.124;6.226;2023-03-19T10:18:27;101490.28;;;23.16;43.61
76024;BME280;64719;52.124;6.226;2023-03-19T10:20:58;101495.44;;;23.04;46.72
76024;BME280;64719;52.124;6.226;2023-03-19T10:23:36;101489.72;;;25.46;39.56
76024;BME280;64719;52.124;6.226;2023-03-19T10:26:08;101494.16;;;25.91;36.77
76024;BME280;64719;52.124;6.226;2023-03-19T10:28:37;101497.03;;;26.30;37.61
76024;BME280;64719;52.124;6.226;2023-03-19T10:31:26;101488.88;;;26.03;35.44
76024;BME280;64719;52.124;6.226;2023-03-19T10:34:06;101496.50;;;26.28;36.53
76024;BME280;64719;52.124;6.226;2023-03-19T10:36:37;101499.06;;;26.55;36.06
76024;BME280;64719;52.124;6.226;2023-03-19T10:39:05;101499.75;;;27.77;33.07
76024;BME280;64719;52.124;6.226;2023-03-19T10:41:46;101491.53;;;27.97;33.75
76024;BME280;64719;52.124;6.226;2023-03-19T10:44:24;101495.81;;;28.50;33.86
76024;BME280;64719;52.124;6.226;2023-03-19T10:46:56;101492.13;;;28.66;31.99
76024;BME280;64719;52.124;6.226;2023-03-19T10:49:23;101493.03;;;27.52;33.35
76024;BME280;64719;52.124;6.226;2023-03-19T10:51:50;101493.75;;;26.67;33.31
76024;BME280;64719;52.124;6.226;2023-03-19T10:54:22;101500.75;;;27.21;33.95
76024;BME280;64719;52.124;6.226;2023-03-19T10:56:54;101503.84;;;28.42;32.60
76024;BME280;64719;52.124;6.226;2023-03-19T10:59:23;101512.38;;;27.15;32.76
76024;BME280;64719;52.124;6.226;2023-03-19T11:01:55;101509.84;;;28.24;31.32
76024;BME280;64719;52.124;6.226;2023-03-19T11:04:23;101499.88;;;28.14;32.07
76024;BME280;64719;52.124;6.226;2023-03-19T11:06:52;101508.38;;;26.42;33.05
76024;BME280;64719;52.124;6.226;2023-03-19T11:09:24;101505.81;;;27.96;31.59
76024;BME280;64719;52.124;6.226;2023-03-19T11:11:57;101515.13;;;29.21;30.59
76024;BME280;64719;52.124;6.226;2023-03-19T11:14:28;101511.75;;;27.52;33.90
76024;BME280;64719;52.124;6.226;2023-03-19T11:17:02;101512.59;;;27.44;32.68
76024;BME280;64719;52.124;6.226;2023-03-19T11:19:31;101504.53;;;27.25;33.46
76024;BME280;64719;52.124;6.226;2023-03-19T11:22:02;101510.56;;;28.59;30.73
76024;BME280;64719;52.124;6.226;2023-03-19T11:24:36;101501.28;;;29.45;30.72
76024;BME280;64719;52.124;6.226;2023-03-19T11:27:04;101506.75;;;29.62;29.90
76024;BME280;64719;52.124;6.226;2023-03-19T11:29:30;101506.53;;;29.26;29.97
76024;BME280;64719;52.124;6.226;2023-03-19T11:32:04;101506.59;;;29.18;29.90
76024;BME280;64719;52.124;6.226;2023-03-19T11:34:43;101499.25;;;28.84;30.07
76024;BME280;64719;52.124;6.226;2023-03-19T11:37:15;101506.28;;;26.56;34.38
76024;BME280;64719;52.124;6.226;2023-03-19T11:39:55;101511.44;;;24.27;36.88
76024;BME280;64719;52.124;6.226;2023-03-19T11:42:48;101509.72;;;25.92;36.03
76024;BME280;64719;52.124;6.226;2023-03-19T11:45:26;101498.09;;;27.84;32.39
76024;BME280;64719;52.124;6.226;2023-03-19T11:48:05;101499.59;;;27.31;32.42
76024;BME280;64719;52.124;6.226;2023-03-19T11:50:44;101505.16;;;27.14;33.09
76024;BME280;64719;52.124;6.226;2023-03-19T11:53:22;101503.59;;;28.27;30.44
76024;BME280;64719;52.124;6.226;2023-03-19T11:55:56;101500.53;;;27.01;33.43
76024;BME280;64719;52.124;6.226;2023-03-19T11:58:40;101507.09;;;26.57;33.34
76024;BME280;64719;52.124;6.226;2023-03-19T12:01:14;101509.19;;;23.33;39.75
76024;BME280;64719;52.124;6.226;2023-03-19T12:04:14;101516.81;;;20.84;46.25
76024;BME280;64719;52.124;6.226;2023-03-19T12:06:52;101517.38;;;20.81;46.51
76024;BME280;64719;52.124;6.226;2023-03-19T12:09:28;101518.16;;;19.62;48.72
76024;BME280;64719;52.124;6.226;2023-03-19T12:12:05;101513.56;;;18.91;51.93
76024;BME280;64719;52.124;6.226;2023-03-19T12:14:44;101514.84;;;18.64;51.95
76024;BME280;64719;52.124;6.226;2023-03-19T12:17:24;101509.75;;;19.07;51.99
76024;BME280;64719;52.124;6.226;2023-03-19T12:20:04;101509.75;;;18.97;52.58
76024;BME280;64719;52.124;6.226;2023-03-19T12:22:47;101515.66;;;18.59;52.59
76024;BME280;64719;52.124;6.226;2023-03-19T12:25:25;101511.16;;;20.40;49.54
76024;BME280;64719;52.124;6.226;2023-03-19T12:27:59;101511.53;;;21.41;46.85
76024;BME280;64719;52.124;6.226;2023-03-19T12:30:33;101511.31;;;20.74;46.88
76024;BME280;64719;52.124;6.226;2023-03-19T12:33:23;101505.22;;;19.48;49.69
76024;BME280;64719;52.124;6.226;2023-03-19T12:35:55;101507.28;;;19.01;51.65
76024;BME280;64719;52.124;6.226;2023-03-19T12:38:25;101510.56;;;19.03;51.51
76024;BME280;64719;52.124;6.226;2023-03-19T12:40:57;101508.22;;;19.66;51.83
76024;BME280;64719;52.124;6.226;2023-03-19T12:43:32;101516.63;;;20.65;47.34
76024;BME280;64719;52.124;6.226;2023-03-19T12:46:04;101508.47;;;22.10;43.78
76024;BME280;64719;52.124;6.226;2023-03-19T12:48:40;101495.91;;;23.81;39.43
76024;BME280;64719;52.124;6.226;2023-03-19T12:51:11;101503.94;;;22.19;42.18
76024;BME280;64719;52.124;6.226;2023-03-19T12:53:44;101507.09;;;19.42;48.87
76024;BME280;64719;52.124;6.226;2023-03-19T12:56:17;101507.28;;;17.97;54.02
76024;BME280;64719;52.124;6.226;2023-03-19T12:58:53;101506.81;;;17.16;56.70
76024;BME280;64719;52.124;6.226;2023-03-19T13:01:25;101519.13;;;16.65;58.98
76024;BME280;64719;52.124;6.226;2023-03-19T13:03:57;101518.97;;;16.72;58.70